Time;durP1;ratioP1;P1;durP2;ratioP2;P2;SDS_P1;SDS_P2;PMS_P1;PMS_P2;Temp;Humidity;BMP_temperature;BMP_pressure;BME280_temperature;BME280_humidity;BME280_pressure;Samples;Min_cycle;Max_cycle;Signal;HPM_P1;HPM_P2
2021/12/06 00:01:15;;;;;;;49.55;20.27;;;1.80;99.90;;;;;;5028198;28;20119;-64
2021/12/06 00:03:51;;;;;;;51.53;20.40;;;1.80;99.90;;;;;;4994367;28;20081;-64
2021/12/06 00:06:21;;;;;;;55.92;21.80;;;1.80;99.90;;;;;;5002689;28;20508;-64
2021/12/06 00:08:47;;;;;;;50.90;21.43;;;1.80;99.90;;;;;;5011091;28;20059;-64
2021/12/06 00:11:14;;;;;;;51.33;23.13;;;1.80;99.90;;;;;;5010888;28;20117;-65
2021/12/06 00:13:42;;;;;;;49.80;20.95;;;1.80;99.90;;;;;;5026614;28;20053;-65
2021/12/06 00:16:13;;;;;;;51.13;21.23;;;1.70;99.90;;;;;;4991259;28;20183;-64
2021/12/06 00:18:39;;;;;;;54.38;21.83;;;1.70;99.90;;;;;;4998538;28;20457;-64
2021/12/06 00:21:05;;;;;;;54.47;22.05;;;1.80;99.90;;;;;;5011750;28;20244;-65
2021/12/06 00:23:31;;;;;;;46.28;19.73;;;1.80;99.90;;;;;;5021025;28;20061;-65
2021/12/06 00:25:57;;;;;;;51.92;22.05;;;1.90;99.90;;;;;;5027373;28;20648;-64
2021/12/06 00:28:23;;;;;;;51.38;21.63;;;1.90;99.90;;;;;;5008518;28;20029;-65
2021/12/06 00:30:50;;;;;;;53.22;22.15;;;2.00;99.90;;;;;;5008987;28;20041;-63
2021/12/06 00:33:16;;;;;;;52.35;22.33;;;1.90;99.90;;;;;;5010610;28;20461;-65
2021/12/06 00:35:41;;;;;;;47.22;19.10;;;1.90;99.90;;;;;;5005034;28;20034;-65
2021/12/06 00:38:07;;;;;;;49.47;21.38;;;1.90;99.90;;;;;;5010107;28;20061;-65
2021/12/06 00:40:36;;;;;;;48.70;20.48;;;1.90;99.90;;;;;;5028343;28;20412;-64
2021/12/06 00:43:04;;;;;;;51.70;22.27;;;1.90;99.90;;;;;;4996287;28;20057;-65
2021/12/06 00:45:30;;;;;;;53.28;20.85;;;1.90;99.90;;;;;;4998642;28;20385;-65
2021/12/06 00:47:57;;;;;;;55.88;23.27;;;1.90;99.90;;;;;;5025311;28;20469;-65
2021/12/06 00:50:24;;;;;;;49.25;18.95;;;1.90;99.90;;;;;;5013073;28;20041;-65
2021/12/06 00:52:51;;;;;;;53.88;21.40;;;2.00;99.90;;;;;;5011279;28;20433;-65
2021/12/06 00:55:18;;;;;;;54.50;22.08;;;2.00;99.90;;;;;;5011053;28;20099;-65
2021/12/06 00:57:44;;;;;;;51.60;20.67;;;2.00;99.90;;;;;;5003011;28;20216;-65
2021/12/06 01:00:19;;;;;;;54.33;20.38;;;2.00;99.90;;;;;;5008375;28;20393;-64
2021/12/06 01:02:45;;;;;;;53.15;21.33;;;2.00;99.90;;;;;;5009077;28;20091;-65
2021/12/06 01:05:11;;;;;;;50.33;19.40;;;2.00;99.90;;;;;;4984586;28;20120;-65
2021/12/06 01:07:37;;;;;;;52.00;21.13;;;2.00;99.90;;;;;;5012787;28;20133;-65
2021/12/06 01:10:05;;;;;;;48.35;21.15;;;2.10;99.90;;;;;;5003784;28;20428;-65
2021/12/06 01:12:31;;;;;;;49.85;21.35;;;2.10;99.90;;;;;;5009778;28;20042;-64
2021/12/06 01:14:56;;;;;;;52.55;22.25;;;2.10;99.90;;;;;;4996786;28;20056;-63
2021/12/06 01:17:22;;;;;;;54.58;21.88;;;2.10;99.90;;;;;;4981567;28;20462;-65
2021/12/06 01:19:48;;;;;;;49.88;20.35;;;2.10;99.90;;;;;;4997662;28;20055;-65
2021/12/06 01:22:32;;;;;;;58.08;23.15;;;2.10;99.90;;;;;;5014201;28;20033;-65
2021/12/06 01:25:05;;;;;;;51.53;20.48;;;2.10;99.90;;;;;;5014357;28;20505;-63
2021/12/06 01:27:47;;;;;;;58.67;23.33;;;2.10;99.90;;;;;;5005783;28;20114;-65
2021/12/06 01:30:31;;;;;;;57.53;22.35;;;2.10;99.90;;;;;;4996533;28;20102;-65
2021/12/06 01:41:10;;;;;;;59.35;20.33;;;2.10;99.90;;;;;;5008961;28;20054;-64
2021/12/06 01:43:36;;;;;;;63.60;22.63;;;2.00;99.90;;;;;;5002938;28;20375;-65
2021/12/06 01:46:02;;;;;;;58.60;22.30;;;2.10;99.90;;;;;;5023622;28;20049;-64
2021/12/06 01:48:29;;;;;;;57.35;21.02;;;2.00;99.90;;;;;;5031931;28;20068;-65
2021/12/06 01:50:54;;;;;;;53.83;21.10;;;2.00;99.90;;;;;;4992161;28;20037;-64
2021/12/06 01:53:20;;;;;;;51.65;21.15;;;2.10;99.90;;;;;;5013118;28;20390;-65
2021/12/06 01:55:45;;;;;;;56.28;21.42;;;2.00;99.90;;;;;;5009749;28;20045;-65
2021/12/06 01:58:11;;;;;;;54.10;22.63;;;2.10;99.90;;;;;;5037056;28;20049;-66
2021/12/06 02:00:51;;;;;;;57.45;21.20;;;2.10;99.90;;;;;;5012443;28;20095;-66
2021/12/06 02:03:17;;;;;;;55.85;21.08;;;2.10;99.90;;;;;;5041347;28;20068;-65
2021/12/06 02:05:48;;;;;;;55.40;21.05;;;2.10;99.90;;;;;;5051324;28;20057;-66
2021/12/06 02:08:14;;;;;;;57.53;23.48;;;2.10;99.90;;;;;;5029632;28;20049;-65
2021/12/06 02:10:40;;;;;;;60.38;20.75;;;2.20;99.90;;;;;;5027750;28;20048;-66
2021/12/06 02:13:08;;;;;;;60.33;22.30;;;2.20;99.90;;;;;;5030536;28;20059;-65
2021/12/06 02:15:51;;;;;;;59.50;22.48;;;2.20;99.90;;;;;;5017709;28;20041;-65
2021/12/06 02:18:40;;;;;;;53.97;21.55;;;2.20;99.90;;;;;;5026561;28;20041;-66
2021/12/06 02:21:36;;;;;;;53.40;21.38;;;2.20;99.90;;;;;;5021795;28;20053;-67
2021/12/06 02:24:07;;;;;;;58.85;22.08;;;2.20;99.90;;;;;;5020607;28;20141;-66
2021/12/06 02:26:33;;;;;;;58.08;21.30;;;2.20;99.90;;;;;;5046250;28;20040;-69
2021/12/06 02:28:59;;;;;;;61.33;23.33;;;2.20;99.90;;;;;;5020756;28;20036;-66
2021/12/06 02:31:27;;;;;;;56.60;22.25;;;2.20;99.90;;;;;;5026737;28;20120;-65
2021/12/06 02:33:53;;;;;;;58.00;23.02;;;2.30;99.90;;;;;;5015352;28;20048;-66
2021/12/06 02:36:20;;;;;;;59.13;23.92;;;2.30;99.90;;;;;;5033630;28;20041;-65
2021/12/06 02:38:47;;;;;;;61.35;23.27;;;2.30;99.90;;;;;;5025120;28;20039;-65
2021/12/06 02:41:15;;;;;;;64.25;23.08;;;2.30;99.90;;;;;;5031088;28;20069;-65
2021/12/06 02:43:42;;;;;;;68.53;24.60;;;2.30;99.90;;;;;;5018949;28;20091;-65
2021/12/06 02:46:08;;;;;;;63.25;23.65;;;2.20;99.90;;;;;;5028036;28;20037;-64
2021/12/06 02:48:34;;;;;;;63.65;24.38;;;2.20;99.90;;;;;;5015245;28;20381;-65
2021/12/06 02:51:04;;;;;;;52.25;22.80;;;2.20;99.90;;;;;;5029946;28;20037;-64
2021/12/06 02:53:31;;;;;;;64.80;21.38;;;2.20;99.90;;;;;;5049457;28;20433;-64
2021/12/06 02:56:04;;;;;;;58.05;23.08;;;2.10;99.90;;;;;;5031272;28;20079;-65
2021/12/06 03:01:10;;;;;;;63.85;23.10;;;2.20;99.90;;;;;;5030969;28;20106;-65
2021/12/06 03:03:36;;;;;;;64.30;24.60;;;2.20;99.90;;;;;;5029120;28;20045;-65
2021/12/06 03:06:02;;;;;;;60.08;24.40;;;2.20;99.90;;;;;;5030962;28;20107;-66
2021/12/06 03:08:34;;;;;;;65.18;22.58;;;2.30;99.90;;;;;;5048048;28;20536;-65
2021/12/06 03:10:59;;;;;;;59.55;22.35;;;2.30;99.90;;;;;;5024112;28;20132;-65
2021/12/06 03:13:25;;;;;;;65.35;23.23;;;2.20;99.90;;;;;;5021177;28;20132;-64
2021/12/06 03:15:50;;;;;;;59.60;22.50;;;2.20;99.90;;;;;;5028826;28;20608;-65
2021/12/06 03:18:16;;;;;;;68.22;23.85;;;2.20;99.90;;;;;;5035537;28;20040;-66
2021/12/06 03:20:41;;;;;;;62.03;22.63;;;2.20;99.90;;;;;;5014266;28;20102;-66
2021/12/06 03:23:07;;;;;;;69.10;25.05;;;2.20;99.90;;;;;;5031302;28;20045;-65
2021/12/06 03:25:33;;;;;;;63.60;23.60;;;2.30;99.90;;;;;;5018681;28;20037;-66
2021/12/06 03:28:02;;;;;;;68.43;24.30;;;2.20;99.90;;;;;;5014712;28;20057;-65
2021/12/06 03:30:27;;;;;;;69.65;27.10;;;2.30;99.90;;;;;;5030251;28;20041;-66
2021/12/06 03:32:53;;;;;;;67.65;23.95;;;2.30;99.90;;;;;;5034149;28;20045;-66
2021/12/06 03:35:18;;;;;;;65.45;24.65;;;2.30;99.90;;;;;;5043317;28;20508;-66
2021/12/06 03:37:44;;;;;;;71.80;24.08;;;2.30;99.90;;;;;;5025567;28;20117;-65
2021/12/06 03:40:10;;;;;;;67.32;25.45;;;2.30;99.90;;;;;;5024769;28;20048;-64
2021/12/06 03:42:36;;;;;;;77.13;26.85;;;2.20;99.90;;;;;;5050747;28;20060;-65
2021/12/06 03:45:05;;;;;;;69.95;23.75;;;2.20;99.90;;;;;;5030458;28;20064;-65
2021/12/06 03:47:32;;;;;;;70.95;26.48;;;2.20;99.90;;;;;;5030155;28;20068;-64
2021/12/06 03:49:58;;;;;;;69.32;24.98;;;2.20;99.90;;;;;;5031441;28;20565;-66
2021/12/06 03:52:24;;;;;;;66.18;26.25;;;2.30;99.90;;;;;;5030929;28;20068;-66
2021/12/06 03:54:50;;;;;;;72.05;25.45;;;2.30;99.90;;;;;;5030872;28;20052;-65
2021/12/06 03:57:17;;;;;;;71.38;25.98;;;2.30;99.90;;;;;;5028508;28;20053;-65
2021/12/06 03:59:43;;;;;;;70.63;24.55;;;2.30;99.90;;;;;;5013457;28;20099;-65
2021/12/06 04:02:08;;;;;;;70.88;26.02;;;2.30;99.90;;;;;;5030951;28;20040;-65
2021/12/06 04:04:35;;;;;;;75.25;25.50;;;2.30;99.90;;;;;;5031488;28;20067;-65
2021/12/06 04:07:02;;;;;;;68.72;23.98;;;2.30;99.90;;;;;;5030904;28;20193;-66
2021/12/06 04:09:28;;;;;;;67.30;25.40;;;2.30;99.90;;;;;;5030698;28;20118;-66
2021/12/06 04:11:53;;;;;;;70.07;24.10;;;2.30;99.90;;;;;;5029524;28;20045;-64
2021/12/06 04:14:19;;;;;;;69.15;26.63;;;2.30;99.90;;;;;;5029930;28;20453;-66
2021/12/06 04:16:46;;;;;;;66.55;24.60;;;2.30;99.90;;;;;;5035726;28;20361;-65
2021/12/06 04:19:12;;;;;;;71.35;25.42;;;2.30;99.90;;;;;;5039778;28;20041;-65
2021/12/06 04:21:40;;;;;;;69.43;25.13;;;2.30;99.90;;;;;;5010531;28;20144;-65
2021/12/06 04:24:07;;;;;;;65.93;24.52;;;2.20;99.90;;;;;;5002997;28;20083;-65
2021/12/06 04:26:32;;;;;;;68.18;23.00;;;2.30;99.90;;;;;;5032888;28;20435;-64
2021/12/06 04:28:59;;;;;;;70.60;24.83;;;2.30;99.90;;;;;;5017000;28;20124;-66
2021/12/06 04:31:32;;;;;;;68.82;24.55;;;2.30;99.90;;;;;;5033506;28;20045;-66
2021/12/06 04:33:59;;;;;;;67.75;24.88;;;2.30;99.90;;;;;;5041124;28;20119;-65
2021/12/06 04:36:25;;;;;;;74.93;25.70;;;2.30;99.90;;;;;;5034631;28;20048;-69
2021/12/06 04:38:51;;;;;;;76.13;25.27;;;2.30;99.90;;;;;;5034256;28;20033;-64
2021/12/06 04:41:17;;;;;;;74.93;25.50;;;2.30;99.90;;;;;;5045302;28;20057;-65
2021/12/06 04:43:43;;;;;;;73.70;25.42;;;2.30;99.90;;;;;;5032970;28;20043;-65
2021/12/06 04:46:08;;;;;;;70.43;24.73;;;2.30;99.90;;;;;;5017162;28;20183;-65
2021/12/06 04:48:34;;;;;;;79.03;26.40;;;2.30;99.90;;;;;;5034686;28;20083;-65
2021/12/06 04:51:00;;;;;;;78.25;25.65;;;2.30;99.90;;;;;;5041013;28;20374;-66
2021/12/06 04:53:36;;;;;;;72.18;25.27;;;2.30;99.90;;;;;;5033955;28;20805;-66
2021/12/06 04:56:04;;;;;;;78.00;25.75;;;2.30;99.90;;;;;;5034166;28;20040;-65
2021/12/06 04:58:33;;;;;;;74.82;24.65;;;2.30;99.90;;;;;;5031659;28;20068;-65
2021/12/06 05:01:22;;;;;;;66.68;25.00;;;2.30;99.90;;;;;;5033171;28;20171;-65
2021/12/06 05:03:48;;;;;;;76.50;25.48;;;2.40;99.90;;;;;;5027273;28;20120;-66
2021/12/06 05:06:19;;;;;;;76.63;23.40;;;2.30;99.90;;;;;;5046029;28;20164;-66
2021/12/06 05:08:49;;;;;;;70.70;25.13;;;2.30;99.90;;;;;;5051717;28;20029;-65
2021/12/06 05:11:17;;;;;;;72.93;23.85;;;2.30;99.90;;;;;;5033595;28;20037;-65
2021/12/06 05:13:45;;;;;;;62.67;23.77;;;2.30;99.90;;;;;;5014740;28;20029;-66
2021/12/06 05:16:11;;;;;;;67.57;23.50;;;2.30;99.90;;;;;;5050859;28;20468;-65
2021/12/06 05:18:36;;;;;;;70.57;22.73;;;2.30;99.90;;;;;;5034164;28;20029;-64
2021/12/06 05:21:03;;;;;;;77.90;25.58;;;2.30;99.90;;;;;;5033575;28;20064;-65
2021/12/06 05:23:29;;;;;;;69.22;22.52;;;2.30;99.90;;;;;;5051728;28;20389;-65
2021/12/06 05:25:54;;;;;;;67.95;23.35;;;2.30;99.90;;;;;;5034498;28;20480;-65
2021/12/06 05:28:27;;;;;;;65.38;24.02;;;2.30;99.90;;;;;;5028391;28;20132;-65
2021/12/06 05:30:57;;;;;;;71.38;23.52;;;2.40;99.90;;;;;;5029626;28;20063;-65
2021/12/06 05:33:30;;;;;;;81.45;24.83;;;2.40;99.90;;;;;;5030301;28;20090;-66
2021/12/06 05:36:02;;;;;;;78.53;24.30;;;2.40;99.90;;;;;;5029957;28;20048;-66
2021/12/06 05:38:29;;;;;;;79.90;24.42;;;2.40;99.90;;;;;;5027817;28;20044;-65
2021/12/06 05:40:55;;;;;;;75.95;25.05;;;2.40;99.90;;;;;;5032795;28;20033;-65
2021/12/06 05:43:21;;;;;;;69.43;23.27;;;2.40;99.90;;;;;;5030499;28;20045;-65
2021/12/06 05:45:47;;;;;;;75.35;24.38;;;2.40;99.90;;;;;;5050292;28;20037;-68
2021/12/06 05:48:12;;;;;;;73.95;23.80;;;2.30;99.90;;;;;;5045883;28;20045;-65
2021/12/06 05:50:38;;;;;;;70.18;23.63;;;2.30;99.90;;;;;;5031937;28;20045;-66
2021/12/06 05:53:04;;;;;;;71.55;24.27;;;2.40;99.90;;;;;;5032927;28;20492;-66
2021/12/06 05:55:29;;;;;;;70.55;23.63;;;2.30;99.90;;;;;;5032054;28;20100;-65
2021/12/06 05:58:00;;;;;;;70.28;23.08;;;2.40;99.90;;;;;;5030698;28;20178;-65
2021/12/06 06:00:28;;;;;;;65.95;22.00;;;2.40;99.90;;;;;;5031201;28;20052;-65
2021/12/06 06:02:54;;;;;;;72.38;23.60;;;2.40;99.90;;;;;;5033184;28;20516;-64
2021/12/06 06:05:21;;;;;;;78.28;23.10;;;2.40;99.90;;;;;;5051425;28;20044;-65
2021/12/06 06:07:47;;;;;;;77.90;25.10;;;2.40;99.90;;;;;;5032365;28;20362;-65
2021/12/06 06:10:13;;;;;;;75.65;23.90;;;2.40;99.90;;;;;;5033087;28;20060;-66
2021/12/06 06:12:39;;;;;;;79.43;25.10;;;2.40;99.90;;;;;;5031320;28;20453;-65
2021/12/06 06:15:05;;;;;;;82.80;23.85;;;2.40;99.90;;;;;;5048944;28;20055;-65
2021/12/06 06:17:39;;;;;;;77.00;25.00;;;2.40;99.90;;;;;;5065621;28;20311;-65
2021/12/06 06:20:13;;;;;;;75.30;26.20;;;2.40;99.90;;;;;;5032796;28;20065;-65
2021/12/06 06:22:39;;;;;;;80.90;26.83;;;2.40;99.90;;;;;;5014402;28;20502;-66
2021/12/06 06:25:05;;;;;;;78.15;25.73;;;2.40;99.90;;;;;;5026505;28;20117;-65
2021/12/06 06:27:31;;;;;;;83.57;24.85;;;2.40;99.90;;;;;;5030051;28;20061;-65
2021/12/06 06:29:57;;;;;;;82.25;24.90;;;2.40;99.90;;;;;;5048984;28;20049;-64
2021/12/06 06:32:22;;;;;;;84.05;25.70;;;2.40;99.90;;;;;;5018407;28;20071;-64
2021/12/06 06:34:48;;;;;;;79.93;25.33;;;2.40;99.90;;;;;;5032966;28;20132;-65
2021/12/06 06:37:13;;;;;;;76.03;22.67;;;2.40;99.90;;;;;;5050176;28;20076;-65
2021/12/06 06:39:39;;;;;;;80.20;27.52;;;2.40;99.90;;;;;;5030965;28;20044;-65
2021/12/06 06:42:05;;;;;;;79.55;23.83;;;2.40;99.90;;;;;;5028775;28;20216;-65
2021/12/06 06:44:30;;;;;;;75.05;24.15;;;2.40;99.90;;;;;;5028874;28;20062;-66
2021/12/06 06:46:56;;;;;;;79.22;26.17;;;2.40;99.90;;;;;;5047639;28;20347;-65
2021/12/06 06:49:22;;;;;;;79.78;26.02;;;2.40;99.90;;;;;;5032102;28;20048;-65
2021/12/06 06:51:47;;;;;;;76.30;25.08;;;2.40;99.90;;;;;;5027906;28;20132;-65
2021/12/06 06:54:14;;;;;;;73.10;23.30;;;2.40;99.90;;;;;;5032225;28;20059;-65
2021/12/06 06:56:40;;;;;;;78.57;24.05;;;2.40;99.90;;;;;;5029839;28;20045;-65
2021/12/06 06:59:06;;;;;;;76.78;22.10;;;2.40;99.90;;;;;;5030368;28;20088;-65
2021/12/06 07:01:32;;;;;;;87.57;24.52;;;2.40;99.90;;;;;;5031373;28;20076;-65
2021/12/06 07:03:58;;;;;;;88.00;25.05;;;2.40;99.90;;;;;;5047052;28;20049;-64
2021/12/06 07:06:26;;;;;;;90.15;25.40;;;2.40;99.90;;;;;;5015424;28;20041;-65
2021/12/06 07:08:54;;;;;;;68.07;20.98;;;2.40;99.90;;;;;;5031714;28;20037;-65
2021/12/06 07:11:21;;;;;;;78.22;26.17;;;2.30;99.90;;;;;;5027512;28;20055;-64
2021/12/06 07:13:47;;;;;;;71.53;23.55;;;2.30;99.90;;;;;;5013239;28;20045;-64
2021/12/06 07:16:15;;;;;;;76.38;23.67;;;2.40;99.90;;;;;;5014333;28;20045;-65
2021/12/06 07:18:42;;;;;;;80.45;24.23;;;2.30;99.90;;;;;;5022553;28;20049;-64
2021/12/06 07:21:08;;;;;;;80.18;23.00;;;2.30;99.90;;;;;;5031705;28;20484;-64
2021/12/06 07:23:38;;;;;;;76.78;23.73;;;2.40;99.90;;;;;;5047553;28;20076;-66
2021/12/06 07:26:06;;;;;;;63.25;21.88;;;2.30;99.90;;;;;;5029315;28;20040;-64
2021/12/06 07:28:32;;;;;;;77.88;23.15;;;2.30;99.90;;;;;;5029057;28;20076;-64
2021/12/06 07:30:58;;;;;;;80.82;25.40;;;2.30;99.90;;;;;;5013725;28;20056;-65
2021/12/06 07:33:25;;;;;;;80.38;25.88;;;2.40;99.90;;;;;;5032103;28;20045;-65
2021/12/06 07:35:51;;;;;;;79.05;25.10;;;2.40;99.90;;;;;;5031292;28;20032;-65
2021/12/06 07:38:17;;;;;;;80.15;24.88;;;2.30;99.90;;;;;;5030436;28;20044;-64
2021/12/06 07:40:42;;;;;;;72.82;23.90;;;2.40;99.90;;;;;;5031427;28;20041;-65
2021/12/06 07:43:08;;;;;;;72.55;23.25;;;2.30;99.90;;;;;;5032124;28;20083;-65
2021/12/06 07:45:34;;;;;;;70.95;22.25;;;2.30;99.90;;;;;;5029621;28;20033;-66
2021/12/06 07:47:59;;;;;;;65.20;22.17;;;2.30;99.90;;;;;;5014969;28;20061;-66
2021/12/06 07:50:25;;;;;;;62.28;22.20;;;2.30;99.90;;;;;;5030171;28;20440;-65
2021/12/06 07:52:53;;;;;;;65.60;20.80;;;2.30;99.90;;;;;;5029220;28;20060;-64
2021/12/06 07:55:21;;;;;;;62.70;21.98;;;2.30;99.90;;;;;;5029313;28;20124;-65
2021/12/06 07:57:47;;;;;;;67.88;21.77;;;2.30;99.90;;;;;;5030015;28;20156;-65
2021/12/06 08:00:21;;;;;;;60.67;21.73;;;2.30;99.90;;;;;;5032682;28;20132;-65
2021/12/06 08:02:48;;;;;;;54.42;17.55;;;2.30;99.90;;;;;;5017627;28;20033;-64
2021/12/06 08:08:10;;;;;;;65.15;20.20;;;2.30;99.90;;;;;;5051526;28;20058;-65
2021/12/06 08:10:39;;;;;;;60.97;21.15;;;2.30;99.90;;;;;;5051557;28;20132;-66
2021/12/06 08:13:06;;;;;;;62.17;20.52;;;2.30;99.90;;;;;;5032348;28;20044;-65
2021/12/06 08:15:33;;;;;;;59.55;19.67;;;2.30;99.90;;;;;;5033566;28;20102;-65
2021/12/06 08:17:58;;;;;;;57.47;19.33;;;2.30;99.90;;;;;;5052018;28;20048;-66
2021/12/06 08:20:26;;;;;;;56.05;20.20;;;2.30;99.90;;;;;;5035425;28;20036;-65
2021/12/06 08:22:52;;;;;;;58.22;20.23;;;2.30;99.90;;;;;;5031858;28;20431;-65
2021/12/06 08:25:18;;;;;;;59.88;20.02;;;2.30;99.90;;;;;;5015559;28;20068;-65
2021/12/06 08:27:45;;;;;;;54.28;18.83;;;2.40;99.90;;;;;;5033135;28;20496;-64
2021/12/06 08:30:12;;;;;;;56.67;18.98;;;2.40;99.90;;;;;;5033972;28;20060;-65
2021/12/06 08:32:38;;;;;;;51.20;20.02;;;2.30;99.90;;;;;;5047543;28;20112;-66
2021/12/06 08:35:05;;;;;;;56.60;19.92;;;2.30;99.90;;;;;;5040788;28;20080;-64
2021/12/06 08:37:31;;;;;;;49.38;18.08;;;2.30;99.90;;;;;;5030797;28;20045;-65
2021/12/06 08:39:56;;;;;;;61.75;20.80;;;2.30;99.90;;;;;;5019733;28;20036;-65
2021/12/06 08:42:22;;;;;;;60.10;19.92;;;2.30;99.90;;;;;;5030719;28;20481;-65
2021/12/06 08:44:48;;;;;;;55.20;18.88;;;2.30;99.90;;;;;;5027527;28;20037;-65
2021/12/06 08:47:15;;;;;;;53.35;18.40;;;2.30;99.90;;;;;;5033872;28;20052;-65
2021/12/06 08:49:41;;;;;;;54.78;18.88;;;2.30;99.90;;;;;;5031102;28;20033;-64
2021/12/06 08:52:07;;;;;;;57.70;18.20;;;2.20;99.90;;;;;;5033124;28;20041;-64
2021/12/06 08:54:33;;;;;;;49.45;18.08;;;2.20;99.90;;;;;;5020738;28;20066;-64
2021/12/06 08:57:02;;;;;;;53.67;19.13;;;2.20;99.90;;;;;;5028390;28;20193;-65
2021/12/06 08:59:27;;;;;;;52.05;18.50;;;2.20;99.90;;;;;;5051498;28;20453;-66
2021/12/06 09:01:57;;;;;;;52.88;18.60;;;2.20;99.90;;;;;;5033221;28;20029;-65
2021/12/06 09:04:25;;;;;;;52.67;18.30;;;2.20;99.90;;;;;;5052859;28;20128;-65
2021/12/06 09:06:54;;;;;;;53.17;18.42;;;2.20;99.90;;;;;;5051760;28;20191;-65
2021/12/06 09:09:21;;;;;;;50.30;18.77;;;2.20;99.90;;;;;;5032683;28;20041;-65
2021/12/06 09:11:48;;;;;;;53.33;17.83;;;2.20;99.90;;;;;;5030949;28;20052;-65
2021/12/06 09:14:16;;;;;;;42.33;16.63;;;2.30;99.90;;;;;;5023332;28;20368;-65
2021/12/06 09:16:43;;;;;;;51.33;16.65;;;2.20;99.90;;;;;;5032626;28;20128;-69
2021/12/06 09:19:11;;;;;;;47.65;17.75;;;2.30;99.90;;;;;;5033959;28;20138;-66
2021/12/06 09:21:38;;;;;;;47.65;17.52;;;2.20;99.90;;;;;;5033162;28;20071;-65
2021/12/06 09:24:10;;;;;;;57.33;19.35;;;2.20;99.90;;;;;;5030218;28;20069;-66
2021/12/06 09:26:36;;;;;;;49.70;18.35;;;2.20;99.90;;;;;;5031506;28;20049;-65
2021/12/06 09:29:04;;;;;;;50.88;17.40;;;2.30;99.90;;;;;;5012959;28;20048;-66
2021/12/06 09:31:30;;;;;;;47.22;17.05;;;2.30;99.90;;;;;;5029908;28;20040;-66
2021/12/06 09:33:55;;;;;;;45.08;17.63;;;2.30;99.90;;;;;;5030453;28;20163;-66
2021/12/06 09:36:22;;;;;;;43.47;16.80;;;2.30;99.90;;;;;;5031192;28;20037;-66
2021/12/06 09:38:47;;;;;;;52.97;18.13;;;2.40;99.90;;;;;;5031881;28;20445;-65
2021/12/06 09:41:21;;;;;;;47.10;16.33;;;2.40;99.90;;;;;;5028683;28;20073;-66
2021/12/06 09:43:48;;;;;;;46.25;17.00;;;2.40;99.90;;;;;;5016697;28;20137;-66
2021/12/06 09:46:13;;;;;;;51.17;16.42;;;2.30;99.90;;;;;;5027767;28;20067;-65
2021/12/06 09:48:41;;;;;;;52.30;18.33;;;2.30;99.90;;;;;;5032283;28;20079;-66
2021/12/06 09:51:17;;;;;;;53.20;17.17;;;2.20;99.90;;;;;;5017006;28;20044;-66
2021/12/06 09:53:49;;;;;;;45.58;17.25;;;2.40;99.90;;;;;;5024352;28;21071;-66
2021/12/06 09:56:23;;;;;;;49.58;17.88;;;2.30;99.90;;;;;;5014146;28;20048;-65
2021/12/06 09:58:50;;;;;;;52.70;17.70;;;2.40;99.90;;;;;;5025920;28;20111;-65
2021/12/06 10:01:24;;;;;;;48.33;18.67;;;2.40;99.90;;;;;;5027028;28;20440;-67
2021/12/06 10:03:52;;;;;;;50.58;17.48;;;2.40;99.90;;;;;;5031863;28;20116;-65
2021/12/06 10:06:18;;;;;;;53.63;19.40;;;2.40;99.90;;;;;;5029769;28;20037;-66
2021/12/06 10:08:49;;;;;;;47.97;16.60;;;2.40;99.90;;;;;;5023359;28;20051;-67
2021/12/06 10:11:17;;;;;;;51.88;17.70;;;2.40;99.90;;;;;;5029622;28;20068;-65
2021/12/06 10:13:44;;;;;;;53.72;19.23;;;2.50;99.90;;;;;;5030160;28;20167;-66
2021/12/06 10:16:10;;;;;;;52.33;18.30;;;2.50;99.90;;;;;;5029695;28;20128;-66
2021/12/06 10:18:36;;;;;;;56.63;19.40;;;2.60;99.90;;;;;;5031718;28;20132;-66
2021/12/06 10:21:03;;;;;;;54.38;19.38;;;2.60;99.90;;;;;;5039216;28;20041;-66
2021/12/06 10:23:29;;;;;;;55.38;18.63;;;2.70;99.90;;;;;;5032561;28;20444;-67
2021/12/06 10:25:56;;;;;;;51.40;19.13;;;2.60;99.90;;;;;;5020718;28;20106;-66
2021/12/06 10:28:27;;;;;;;62.75;22.35;;;2.50;99.90;;;;;;5009115;28;20050;-66
2021/12/06 10:30:56;;;;;;;71.75;24.60;;;2.60;99.90;;;;;;5029535;28;20081;-66
2021/12/06 10:33:26;;;;;;;65.80;23.88;;;2.60;99.90;;;;;;5015831;28;20538;-66
2021/12/06 10:35:54;;;;;;;65.47;24.45;;;2.60;99.90;;;;;;5028015;28;20045;-64
2021/12/06 10:38:28;;;;;;;68.78;23.67;;;2.60;99.90;;;;;;5031095;28;20045;-66
2021/12/06 10:40:59;;;;;;;65.57;22.85;;;2.70;99.90;;;;;;5031408;28;20428;-65
2021/12/06 10:43:26;;;;;;;67.88;23.08;;;2.70;99.90;;;;;;5013011;28;20041;-65
2021/12/06 10:45:54;;;;;;;66.05;21.90;;;2.60;99.90;;;;;;5010587;28;20029;-66
2021/12/06 10:48:30;;;;;;;56.50;21.70;;;2.60;99.90;;;;;;5012994;28;20045;-65
2021/12/06 10:51:03;;;;;;;59.90;21.55;;;2.60;99.90;;;;;;5030391;28;20049;-65
2021/12/06 10:53:44;;;;;;;53.45;19.33;;;2.70;99.90;;;;;;5028776;28;20036;-65
2021/12/06 10:56:18;;;;;;;44.08;17.33;;;2.70;99.90;;;;;;5030661;28;20048;-65
2021/12/06 10:58:44;;;;;;;40.15;16.83;;;2.70;99.90;;;;;;5029496;28;20424;-65
2021/12/06 11:01:19;;;;;;;38.47;16.23;;;2.70;99.90;;;;;;5039263;28;20123;-64
2021/12/06 11:03:51;;;;;;;38.95;15.25;;;2.70;99.90;;;;;;5024614;28;20397;-64
2021/12/06 11:06:25;;;;;;;43.55;16.13;;;2.70;99.90;;;;;;5040205;28;20052;-65
2021/12/06 11:08:54;;;;;;;40.70;15.98;;;2.80;99.90;;;;;;5007640;28;20032;-65
2021/12/06 11:11:27;;;;;;;38.75;15.88;;;2.80;99.90;;;;;;5043505;28;20036;-64
2021/12/06 11:13:59;;;;;;;40.35;15.75;;;2.80;99.90;;;;;;5024220;28;20029;-65
2021/12/06 11:16:31;;;;;;;38.95;14.60;;;2.80;99.90;;;;;;5008987;28;20064;-65
2021/12/06 11:19:03;;;;;;;34.70;14.50;;;2.80;99.90;;;;;;5032375;28;20114;-66
2021/12/06 11:21:45;;;;;;;34.03;13.25;;;2.90;99.90;;;;;;5033204;28;20052;-67
2021/12/06 11:24:22;;;;;;;30.60;13.10;;;2.90;99.90;;;;;;5031010;28;20037;-65
2021/12/06 11:27:14;;;;;;;29.52;12.77;;;2.90;99.90;;;;;;5029905;28;20461;-66
2021/12/06 11:29:52;;;;;;;31.83;12.68;;;2.90;99.90;;;;;;5030502;28;20044;-66
2021/12/06 11:32:27;;;;;;;28.15;12.57;;;2.90;99.90;;;;;;5031360;28;20037;-65
2021/12/06 11:35:06;;;;;;;33.08;13.77;;;3.00;99.90;;;;;;5032091;28;20098;-66
2021/12/06 11:37:39;;;;;;;27.88;12.73;;;3.00;99.90;;;;;;5031402;28;20127;-68
2021/12/06 11:40:24;;;;;;;34.58;13.70;;;3.10;99.90;;;;;;5010223;28;20045;-65
2021/12/06 11:43:00;;;;;;;32.00;13.25;;;3.10;99.90;;;;;;5029439;28;20069;-65
2021/12/06 11:45:36;;;;;;;32.10;14.43;;;3.10;99.90;;;;;;5025305;28;20124;-65
2021/12/06 11:48:12;;;;;;;27.80;11.57;;;3.10;99.90;;;;;;5031294;28;20511;-66
2021/12/06 11:50:47;;;;;;;30.13;12.75;;;3.10;99.90;;;;;;5042568;28;20041;-66
2021/12/06 11:53:15;;;;;;;28.40;11.50;;;3.10;99.90;;;;;;5030650;28;20048;-65
2021/12/06 11:55:47;;;;;;;34.00;12.88;;;3.10;99.90;;;;;;5031700;28;20693;-65
2021/12/06 11:58:25;;;;;;;31.00;14.07;;;3.10;99.90;;;;;;5025479;28;20045;-65
2021/12/06 12:01:13;;;;;;;33.03;14.52;;;3.00;99.90;;;;;;5030651;28;20056;-66
2021/12/06 12:03:40;;;;;;;38.40;15.93;;;3.10;99.90;;;;;;5031456;28;20037;-70
2021/12/06 12:06:29;;;;;;;38.08;15.50;;;3.10;99.90;;;;;;5030288;28;20065;-65
2021/12/06 12:09:11;;;;;;;37.53;14.27;;;3.10;99.90;;;;;;5030317;28;20099;-66
2021/12/06 12:12:03;;;;;;;37.10;15.27;;;3.10;99.90;;;;;;5029126;28;20045;-65
2021/12/06 12:14:49;;;;;;;44.83;16.40;;;3.10;99.90;;;;;;5029264;28;20048;-66
2021/12/06 12:17:20;;;;;;;41.28;15.90;;;3.10;99.90;;;;;;5029049;28;20081;-65
2021/12/06 12:19:46;;;;;;;;;;;3.10;99.90;;;;;;5031296;28;20433;-65
2021/12/06 12:22:13;;;;;;;37.40;15.23;;;3.10;99.90;;;;;;5029829;28;20000;-65
2021/12/06 12:24:42;;;;;;;42.15;16.20;;;3.20;99.90;;;;;;5011748;28;20639;-65
2021/12/06 12:27:51;;;;;;;39.70;16.52;;;3.10;99.90;;;;;;5010258;28;20042;-65
2021/12/06 12:30:03;;;;;;;39.22;17.58;;;3.20;99.90;;;;;;5026876;28;20057;-69
2021/12/06 12:32:29;;;;;;;40.28;16.80;;;3.30;99.90;;;;;;5030350;28;20283;-65
2021/12/06 12:34:59;;;;;;;38.72;15.75;;;3.30;99.90;;;;;;5049053;28;20033;-66
2021/12/06 12:37:25;;;;;;;43.25;17.27;;;3.30;99.90;;;;;;5029498;28;20048;-65
2021/12/06 12:40:02;;;;;;;40.75;15.65;;;3.30;99.90;;;;;;5013928;28;20041;-67
2021/12/06 12:42:28;;;;;;;40.13;16.42;;;3.30;99.90;;;;;;5046724;28;20033;-66
2021/12/06 12:44:59;;;;;;;36.90;15.52;;;3.30;99.90;;;;;;5031558;28;20048;-65
2021/12/06 12:47:28;;;;;;;38.30;15.95;;;3.40;99.90;;;;;;5033582;28;20055;-66
2021/12/06 12:49:58;;;;;;;42.67;15.32;;;3.20;99.90;;;;;;5016555;28;20048;-64
2021/12/06 12:52:44;;;;;;;34.30;14.18;;;3.30;99.90;;;;;;5033945;28;20470;-65
2021/12/06 12:55:51;;;;;;;42.90;17.45;;;3.30;99.90;;;;;;5047957;28;20029;-66
2021/12/06 12:58:20;;;;;;;41.13;16.20;;;3.30;99.90;;;;;;5015566;28;20129;-66
2021/12/06 13:01:01;;;;;;;37.67;15.73;;;3.30;99.90;;;;;;5030078;28;20041;-66